sensor_id;sensor_type;location;lat;lon;timestamp;temperature;humidity
64869;DHT22;51349;52.424;10.840;2022-07-10T00:01:07;13.90;99.90
64869;DHT22;51349;52.424;10.840;2022-07-10T00:06:08;13.90;99.90
64869;DHT22;51349;52.424;10.840;2022-07-10T00:11:10;13.80;99.90
64869;DHT22;51349;52.424;10.840;2022-07-10T00:16:11;13.90;99.90
64869;DHT22;51349;52.424;10.840;2022-07-10T00:21:11;13.80;99.90
64869;DHT22;51349;52.424;10.840;2022-07-10T00:26:12;13.70;99.90
64869;DHT22;51349;52.424;10.840;2022-07-10T00:31:12;13.70;99.90
64869;DHT22;51349;52.424;10.840;2022-07-10T00:36:13;13.70;99.90
64869;DHT22;51349;52.424;10.840;2022-07-10T00:41:14;13.80;99.90
64869;DHT22;51349;52.424;10.840;2022-07-10T00:46:15;13.70;99.90
64869;DHT22;51349;52.424;10.840;2022-07-10T00:51:22;13.80;99.90
64869;DHT22;51349;52.424;10.840;2022-07-10T00:56:25;13.60;99.90
64869;DHT22;51349;52.424;10.840;2022-07-10T01:01:26;13.50;99.90
64869;DHT22;51349;52.424;10.840;2022-07-10T01:06:26;13.50;99.90
64869;DHT22;51349;52.424;10.840;2022-07-10T01:11:27;13.50;99.90
64869;DHT22;51349;52.424;10.840;2022-07-10T01:16:28;13.60;99.90
64869;DHT22;51349;52.424;10.840;2022-07-10T01:21:36;13.50;99.90
64869;DHT22;51349;52.424;10.840;2022-07-10T01:26:37;13.30;99.90
64869;DHT22;51349;52.424;10.840;2022-07-10T01:31:42;13.20;99.90
64869;DHT22;51349;52.424;10.840;2022-07-10T01:36:43;13.20;99.90
64869;DHT22;51349;52.424;10.840;2022-07-10T01:41:43;13.10;99.90
64869;DHT22;51349;52.424;10.840;2022-07-10T01:46:45;13.00;99.90
64869;DHT22;51349;52.424;10.840;2022-07-10T01:51:46;13.10;99.90
64869;DHT22;51349;52.424;10.840;2022-07-10T01:56:47;13.00;99.90
64869;DHT22;51349;52.424;10.840;2022-07-10T02:01:47;13.00;99.90
64869;DHT22;51349;52.424;10.840;2022-07-10T02:06:48;13.00;99.90
64869;DHT22;51349;52.424;10.840;2022-07-10T02:11:48;13.00;99.90
64869;DHT22;51349;52.424;10.840;2022-07-10T02:16:49;13.00;99.90
64869;DHT22;51349;52.424;10.840;2022-07-10T02:21:50;12.90;99.90
64869;DHT22;51349;52.424;10.840;2022-07-10T02:26:51;12.80;99.90
64869;DHT22;51349;52.424;10.840;2022-07-10T02:31:52;12.70;99.90
64869;DHT22;51349;52.424;10.840;2022-07-10T02:36:53;12.70;99.90
64869;DHT22;51349;52.424;10.840;2022-07-10T02:41:54;12.70;99.90
64869;DHT22;51349;52.424;10.840;2022-07-10T02:46:55;12.70;99.90
64869;DHT22;51349;52.424;10.840;2022-07-10T02:51:55;12.70;99.90
64869;DHT22;51349;52.424;10.840;2022-07-10T02:56:56;12.70;99.90
64869;DHT22;51349;52.424;10.840;2022-07-10T03:01:57;12.80;99.90
64869;DHT22;51349;52.424;10.840;2022-07-10T03:06:57;12.80;99.90
64869;DHT22;51349;52.424;10.840;2022-07-10T03:11:58;12.70;99.90
64869;DHT22;51349;52.424;10.840;2022-07-10T03:16:59;12.70;99.90
64869;DHT22;51349;52.424;10.840;2022-07-10T03:21:59;12.70;99.90
64869;DHT22;51349;52.424;10.840;2022-07-10T03:27:00;12.60;99.90
64869;DHT22;51349;52.424;10.840;2022-07-10T03:32:01;12.60;99.90
64869;DHT22;51349;52.424;10.840;2022-07-10T03:37:04;12.50;99.90
64869;DHT22;51349;52.424;10.840;2022-07-10T03:42:08;12.60;99.90
64869;DHT22;51349;52.424;10.840;2022-07-10T03:47:09;12.50;99.90
64869;DHT22;51349;52.424;10.840;2022-07-10T03:52:09;12.50;99.90
64869;DHT22;51349;52.424;10.840;2022-07-10T03:57:10;12.60;99.90
64869;DHT22;51349;52.424;10.840;2022-07-10T04:02:30;12.50;99.90
64869;DHT22;51349;52.424;10.840;2022-07-10T04:07:30;12.50;99.90
64869;DHT22;51349;52.424;10.840;2022-07-10T04:12:32;12.50;99.90
64869;DHT22;51349;52.424;10.840;2022-07-10T04:17:33;12.50;99.90
64869;DHT22;51349;52.424;10.840;2022-07-10T04:22:34;12.60;99.90
64869;DHT22;51349;52.424;10.840;2022-07-10T04:27:34;12.60;99.90
64869;DHT22;51349;52.424;10.840;2022-07-10T04:32:35;12.60;99.90
64869;DHT22;51349;52.424;10.840;2022-07-10T04:37:39;12.60;99.90
64869;DHT22;51349;52.424;10.840;2022-07-10T04:42:42;12.60;99.90
64869;DHT22;51349;52.424;10.840;2022-07-10T04:47:42;12.60;99.90
64869;DHT22;51349;52.424;10.840;2022-07-10T04:52:43;12.60;99.90
64869;DHT22;51349;52.424;10.840;2022-07-10T04:57:47;12.70;99.90
64869;DHT22;51349;52.424;10.840;2022-07-10T05:02:47;12.70;99.90
64869;DHT22;51349;52.424;10.840;2022-07-10T05:07:48;12.70;99.90
64869;DHT22;51349;52.424;10.840;2022-07-10T05:12:48;12.80;99.90
64869;DHT22;51349;52.424;10.840;2022-07-10T05:17:49;12.80;99.90
64869;DHT22;51349;52.424;10.840;2022-07-10T05:22:50;12.90;99.90
64869;DHT22;51349;52.424;10.840;2022-07-10T05:27:50;12.90;99.90
64869;DHT22;51349;52.424;10.840;2022-07-10T05:32:51;13.00;99.90
64869;DHT22;51349;52.424;10.840;2022-07-10T05:37:52;13.00;99.90
64869;DHT22;51349;52.424;10.840;2022-07-10T05:42:53;13.00;99.90
64869;DHT22;51349;52.424;10.840;2022-07-10T05:47:53;13.10;99.90
64869;DHT22;51349;52.424;10.840;2022-07-10T05:52:54;13.20;99.90
64869;DHT22;51349;52.424;10.840;2022-07-10T05:57:55;13.30;99.90
64869;DHT22;51349;52.424;10.840;2022-07-10T06:02:55;13.40;99.90
64869;DHT22;51349;52.424;10.840;2022-07-10T06:07:56;13.50;99.90
64869;DHT22;51349;52.424;10.840;2022-07-10T06:12:57;13.60;99.90
64869;DHT22;51349;52.424;10.840;2022-07-10T06:17:57;13.70;99.90
64869;DHT22;51349;52.424;10.840;2022-07-10T06:22:58;13.90;99.90
64869;DHT22;51349;52.424;10.840;2022-07-10T06:27:59;13.90;99.90
64869;DHT22;51349;52.424;10.840;2022-07-10T06:33:00;14.10;99.90
64869;DHT22;51349;52.424;10.840;2022-07-10T06:38:01;14.10;99.90
64869;DHT22;51349;52.424;10.840;2022-07-10T06:43:02;14.10;99.90
64869;DHT22;51349;52.424;10.840;2022-07-10T06:48:03;14.30;99.90
64869;DHT22;51349;52.424;10.840;2022-07-10T06:53:04;14.40;99.90
64869;DHT22;51349;52.424;10.840;2022-07-10T06:58:05;14.50;99.90
64869;DHT22;51349;52.424;10.840;2022-07-10T07:03:06;14.40;99.90
64869;DHT22;51349;52.424;10.840;2022-07-10T07:08:06;14.40;99.90
64869;DHT22;51349;52.424;10.840;2022-07-10T07:13:07;14.60;99.90
64869;DHT22;51349;52.424;10.840;2022-07-10T07:18:09;14.60;99.90
64869;DHT22;51349;52.424;10.840;2022-07-10T07:23:13;15.10;99.90
64869;DHT22;51349;52.424;10.840;2022-07-10T07:28:15;15.00;99.90
64869;DHT22;51349;52.424;10.840;2022-07-10T07:33:16;15.30;99.90
64869;DHT22;51349;52.424;10.840;2022-07-10T07:38:17;16.00;99.90
64869;DHT22;51349;52.424;10.840;2022-07-10T07:43:18;16.40;99.90
64869;DHT22;51349;52.424;10.840;2022-07-10T07:48:18;16.00;99.90
64869;DHT22;51349;52.424;10.840;2022-07-10T07:53:19;15.80;99.90
64869;DHT22;51349;52.424;10.840;2022-07-10T07:58:19;16.30;99.90
64869;DHT22;51349;52.424;10.840;2022-07-10T08:03:20;16.00;99.90
64869;DHT22;51349;52.424;10.840;2022-07-10T08:08:21;15.80;99.90
64869;DHT22;51349;52.424;10.840;2022-07-10T08:13:22;15.60;99.90
64869;DHT22;51349;52.424;10.840;2022-07-10T08:18:22;16.00;99.90
64869;DHT22;51349;52.424;10.840;2022-07-10T08:23:23;16.10;99.90
64869;DHT22;51349;52.424;10.840;2022-07-10T08:28:24;16.20;99.90
64869;DHT22;51349;52.424;10.840;2022-07-10T08:33:24;16.10;99.90
64869;DHT22;51349;52.424;10.840;2022-07-10T08:38:25;16.50;99.90
64869;DHT22;51349;52.424;10.840;2022-07-10T08:43:29;16.80;99.90
64869;DHT22;51349;52.424;10.840;2022-07-10T08:48:32;17.50;99.90
64869;DHT22;51349;52.424;10.840;2022-07-10T08:53:39;17.10;99.90
64869;DHT22;51349;52.424;10.840;2022-07-10T08:58:39;17.20;99.90
64869;DHT22;51349;52.424;10.840;2022-07-10T09:03:40;17.00;99.90
64869;DHT22;51349;52.424;10.840;2022-07-10T09:14:04;17.10;99.90
64869;DHT22;51349;52.424;10.840;2022-07-10T09:19:19;17.90;99.90
64869;DHT22;51349;52.424;10.840;2022-07-10T09:24:22;18.30;99.90
64869;DHT22;51349;52.424;10.840;2022-07-10T09:29:23;18.80;99.50
64869;DHT22;51349;52.424;10.840;2022-07-10T09:34:51;18.50;99.90
64869;DHT22;51349;52.424;10.840;2022-07-10T09:40:11;18.60;99.40
64869;DHT22;51349;52.424;10.840;2022-07-10T09:50:22;18.40;98.70
64869;DHT22;51349;52.424;10.840;2022-07-10T09:55:26;17.60;99.70
64869;DHT22;51349;52.424;10.840;2022-07-10T10:00:34;18.70;99.90
64869;DHT22;51349;52.424;10.840;2022-07-10T10:06:28;19.50;99.10
64869;DHT22;51349;52.424;10.840;2022-07-10T10:11:14;19.70;99.10
64869;DHT22;51349;52.424;10.840;2022-07-10T10:16:16;19.00;97.60
64869;DHT22;51349;52.424;10.840;2022-07-10T10:21:19;18.80;96.20
64869;DHT22;51349;52.424;10.840;2022-07-10T10:26:22;19.40;96.70
64869;DHT22;51349;52.424;10.840;2022-07-10T10:31:24;19.80;95.70
64869;DHT22;51349;52.424;10.840;2022-07-10T10:41:49;19.90;94.30
64869;DHT22;51349;52.424;10.840;2022-07-10T10:52:00;21.10;92.60
64869;DHT22;51349;52.424;10.840;2022-07-10T10:57:17;21.50;95.00
64869;DHT22;51349;52.424;10.840;2022-07-10T11:02:31;19.40;93.70
64869;DHT22;51349;52.424;10.840;2022-07-10T11:13:13;18.90;92.40
64869;DHT22;51349;52.424;10.840;2022-07-10T11:18:15;19.60;94.30
64869;DHT22;51349;52.424;10.840;2022-07-10T11:28:49;19.50;93.60
64869;DHT22;51349;52.424;10.840;2022-07-10T11:33:53;20.70;94.10
64869;DHT22;51349;52.424;10.840;2022-07-10T11:39:08;20.10;90.70
64869;DHT22;51349;52.424;10.840;2022-07-10T11:44:17;20.10;92.00
64869;DHT22;51349;52.424;10.840;2022-07-10T11:49:18;19.60;92.70
64869;DHT22;51349;52.424;10.840;2022-07-10T11:54:19;20.10;92.80
64869;DHT22;51349;52.424;10.840;2022-07-10T11:59:27;20.20;92.10
64869;DHT22;51349;52.424;10.840;2022-07-10T12:04:30;20.90;93.30
64869;DHT22;51349;52.424;10.840;2022-07-10T12:09:31;21.10;91.00
64869;DHT22;51349;52.424;10.840;2022-07-10T12:14:32;21.30;90.10
64869;DHT22;51349;52.424;10.840;2022-07-10T12:19:37;21.20;89.00
64869;DHT22;51349;52.424;10.840;2022-07-10T12:24:41;20.20;90.00
64869;DHT22;51349;52.424;10.840;2022-07-10T12:29:41;20.30;91.40
64869;DHT22;51349;52.424;10.840;2022-07-10T12:34:42;21.10;90.70
64869;DHT22;51349;52.424;10.840;2022-07-10T12:39:48;20.70;85.30
64869;DHT22;51349;52.424;10.840;2022-07-10T12:44:49;20.80;88.80
64869;DHT22;51349;52.424;10.840;2022-07-10T12:55:05;20.20;89.60
64869;DHT22;51349;52.424;10.840;2022-07-10T13:00:08;20.10;91.40
64869;DHT22;51349;52.424;10.840;2022-07-10T13:05:25;20.30;90.60
64869;DHT22;51349;52.424;10.840;2022-07-10T13:10:29;20.70;90.50
64869;DHT22;51349;52.424;10.840;2022-07-10T13:15:30;20.00;90.50
64869;DHT22;51349;52.424;10.840;2022-07-10T13:20:30;20.50;91.80
64869;DHT22;51349;52.424;10.840;2022-07-10T13:25:31;20.70;91.40
64869;DHT22;51349;52.424;10.840;2022-07-10T13:30:32;20.10;90.70
64869;DHT22;51349;52.424;10.840;2022-07-10T13:35:32;20.00;90.40
64869;DHT22;51349;52.424;10.840;2022-07-10T13:40:36;20.30;90.70
64869;DHT22;51349;52.424;10.840;2022-07-10T13:45:36;20.30;88.70
64869;DHT22;51349;52.424;10.840;2022-07-10T13:50:44;20.40;90.40
64869;DHT22;51349;52.424;10.840;2022-07-10T13:55:47;20.00;91.00
64869;DHT22;51349;52.424;10.840;2022-07-10T14:00:49;20.10;91.60
64869;DHT22;51349;52.424;10.840;2022-07-10T14:05:49;20.10;90.90
64869;DHT22;51349;52.424;10.840;2022-07-10T14:10:51;20.60;91.10
64869;DHT22;51349;52.424;10.840;2022-07-10T14:15:51;20.40;90.60
64869;DHT22;51349;52.424;10.840;2022-07-10T14:20:52;20.30;90.90
64869;DHT22;51349;52.424;10.840;2022-07-10T14:26:05;20.10;91.20
64869;DHT22;51349;52.424;10.840;2022-07-10T14:31:06;19.90;90.90
64869;DHT22;51349;52.424;10.840;2022-07-10T14:36:11;20.20;90.80
64869;DHT22;51349;52.424;10.840;2022-07-10T14:41:26;20.60;90.70
64869;DHT22;51349;52.424;10.840;2022-07-10T14:46:32;19.90;91.10
64869;DHT22;51349;52.424;10.840;2022-07-10T14:51:33;20.70;91.00
64869;DHT22;51349;52.424;10.840;2022-07-10T14:56:35;20.50;90.10
64869;DHT22;51349;52.424;10.840;2022-07-10T15:01:42;20.30;90.60
64869;DHT22;51349;52.424;10.840;2022-07-10T15:06:45;20.60;92.00
64869;DHT22;51349;52.424;10.840;2022-07-10T15:11:49;20.70;91.40
64869;DHT22;51349;52.424;10.840;2022-07-10T15:16:52;21.00;91.00
64869;DHT22;51349;52.424;10.840;2022-07-10T15:21:56;21.10;90.40
64869;DHT22;51349;52.424;10.840;2022-07-10T15:26:56;20.50;90.50
64869;DHT22;51349;52.424;10.840;2022-07-10T15:31:57;21.00;90.80
64869;DHT22;51349;52.424;10.840;2022-07-10T15:36:58;20.50;89.80
64869;DHT22;51349;52.424;10.840;2022-07-10T15:41:58;21.00;90.20
64869;DHT22;51349;52.424;10.840;2022-07-10T15:46:59;20.50;90.30
64869;DHT22;51349;52.424;10.840;2022-07-10T15:52:00;20.70;91.40
64869;DHT22;51349;52.424;10.840;2022-07-10T15:57:01;20.10;89.30
64869;DHT22;51349;52.424;10.840;2022-07-10T16:02:05;20.20;90.30
64869;DHT22;51349;52.424;10.840;2022-07-10T16:07:06;20.20;90.80
64869;DHT22;51349;52.424;10.840;2022-07-10T16:12:07;20.30;90.10
64869;DHT22;51349;52.424;10.840;2022-07-10T16:17:32;20.50;91.40
64869;DHT22;51349;52.424;10.840;2022-07-10T16:22:43;19.90;91.60
64869;DHT22;51349;52.424;10.840;2022-07-10T16:33:32;20.10;91.70
64869;DHT22;51349;52.424;10.840;2022-07-10T16:38:33;19.70;91.60
64869;DHT22;51349;52.424;10.840;2022-07-10T16:43:37;19.50;91.80
64869;DHT22;51349;52.424;10.840;2022-07-10T16:48:38;19.50;92.60
64869;DHT22;51349;52.424;10.840;2022-07-10T16:53:40;19.60;93.00
64869;DHT22;51349;52.424;10.840;2022-07-10T16:58:40;19.60;92.70
64869;DHT22;51349;52.424;10.840;2022-07-10T17:03:41;19.40;92.80
64869;DHT22;51349;52.424;10.840;2022-07-10T17:08:45;19.50;93.30
64869;DHT22;51349;52.424;10.840;2022-07-10T17:13:45;19.40;94.00
64869;DHT22;51349;52.424;10.840;2022-07-10T17:18:46;19.20;93.60
64869;DHT22;51349;52.424;10.840;2022-07-10T17:23:48;19.70;93.10
64869;DHT22;51349;52.424;10.840;2022-07-10T17:28:48;19.40;92.90
64869;DHT22;51349;52.424;10.840;2022-07-10T17:33:49;19.50;93.00
64869;DHT22;51349;52.424;10.840;2022-07-10T17:38:50;19.70;92.50
64869;DHT22;51349;52.424;10.840;2022-07-10T17:43:51;19.60;91.80
64869;DHT22;51349;52.424;10.840;2022-07-10T17:48:51;19.60;91.90
64869;DHT22;51349;52.424;10.840;2022-07-10T17:53:52;19.40;91.80
64869;DHT22;51349;52.424;10.840;2022-07-10T17:58:53;19.30;91.60
64869;DHT22;51349;52.424;10.840;2022-07-10T18:03:54;19.30;91.60
64869;DHT22;51349;52.424;10.840;2022-07-10T18:08:58;19.30;90.80
64869;DHT22;51349;52.424;10.840;2022-07-10T18:13:59;19.10;91.30
64869;DHT22;51349;52.424;10.840;2022-07-10T18:19:02;19.00;90.80
64869;DHT22;51349;52.424;10.840;2022-07-10T18:29:51;19.00;92.00
64869;DHT22;51349;52.424;10.840;2022-07-10T18:34:56;18.70;91.50
64869;DHT22;51349;52.424;10.840;2022-07-10T18:39:56;18.60;91.70
64869;DHT22;51349;52.424;10.840;2022-07-10T18:44:57;18.50;91.80
64869;DHT22;51349;52.424;10.840;2022-07-10T18:49:57;18.30;91.70
64869;DHT22;51349;52.424;10.840;2022-07-10T18:54:58;18.20;92.00
64869;DHT22;51349;52.424;10.840;2022-07-10T18:59:58;18.20;92.50
64869;DHT22;51349;52.424;10.840;2022-07-10T19:04:59;18.20;92.50
64869;DHT22;51349;52.424;10.840;2022-07-10T19:10:00;17.90;92.60
64869;DHT22;51349;52.424;10.840;2022-07-10T19:15:01;17.70;92.40
64869;DHT22;51349;52.424;10.840;2022-07-10T19:20:02;17.50;92.30
64869;DHT22;51349;52.424;10.840;2022-07-10T19:25:03;17.50;92.70
64869;DHT22;51349;52.424;10.840;2022-07-10T19:30:05;17.40;92.60
64869;DHT22;51349;52.424;10.840;2022-07-10T19:35:12;17.30;93.00
64869;DHT22;51349;52.424;10.840;2022-07-10T19:40:13;17.00;93.30
64869;DHT22;51349;52.424;10.840;2022-07-10T19:45:15;16.90;92.70
64869;DHT22;51349;52.424;10.840;2022-07-10T19:50:15;16.80;93.30
64869;DHT22;51349;52.424;10.840;2022-07-10T19:55:16;16.60;93.30
64869;DHT22;51349;52.424;10.840;2022-07-10T20:00:20;16.50;93.10
64869;DHT22;51349;52.424;10.840;2022-07-10T20:05:24;16.50;93.80
64869;DHT22;51349;52.424;10.840;2022-07-10T20:10:27;16.20;93.80
64869;DHT22;51349;52.424;10.840;2022-07-10T20:15:29;16.10;94.10
64869;DHT22;51349;52.424;10.840;2022-07-10T20:20:29;16.00;94.40
64869;DHT22;51349;52.424;10.840;2022-07-10T20:25:30;15.80;94.40
64869;DHT22;51349;52.424;10.840;2022-07-10T20:30:31;15.80;94.50
64869;DHT22;51349;52.424;10.840;2022-07-10T20:35:35;15.60;94.90
64869;DHT22;51349;52.424;10.840;2022-07-10T20:40:35;15.60;95.30
64869;DHT22;51349;52.424;10.840;2022-07-10T20:45:36;15.40;95.70
64869;DHT22;51349;52.424;10.840;2022-07-10T20:50:36;15.30;95.90
64869;DHT22;51349;52.424;10.840;2022-07-10T20:55:38;15.30;96.30
64869;DHT22;51349;52.424;10.840;2022-07-10T21:00:39;15.20;96.90
64869;DHT22;51349;52.424;10.840;2022-07-10T21:05:39;15.20;97.30
64869;DHT22;51349;52.424;10.840;2022-07-10T21:10:40;15.00;97.80
64869;DHT22;51349;52.424;10.840;2022-07-10T21:15:41;15.00;98.50
64869;DHT22;51349;52.424;10.840;2022-07-10T21:20:42;15.00;98.90
64869;DHT22;51349;52.424;10.840;2022-07-10T21:25:43;15.00;99.10
64869;DHT22;51349;52.424;10.840;2022-07-10T21:30:43;14.90;99.50
64869;DHT22;51349;52.424;10.840;2022-07-10T21:35:44;14.90;99.90
64869;DHT22;51349;52.424;10.840;2022-07-10T21:40:46;14.80;99.90
64869;DHT22;51349;52.424;10.840;2022-07-10T21:45:46;14.70;99.90
64869;DHT22;51349;52.424;10.840;2022-07-10T21:50:47;14.70;99.90
64869;DHT22;51349;52.424;10.840;2022-07-10T21:55:57;14.60;99.90
64869;DHT22;51349;52.424;10.840;2022-07-10T22:00:57;14.60;99.90
64869;DHT22;51349;52.424;10.840;2022-07-10T22:05:58;14.50;99.90
64869;DHT22;51349;52.424;10.840;2022-07-10T22:10:59;14.40;99.90
64869;DHT22;51349;52.424;10.840;2022-07-10T22:16:00;14.10;99.90
64869;DHT22;51349;52.424;10.840;2022-07-10T22:21:00;14.10;99.90
64869;DHT22;51349;52.424;10.840;2022-07-10T22:26:01;13.90;99.90
64869;DHT22;51349;52.424;10.840;2022-07-10T22:31:02;13.90;99.90
64869;DHT22;51349;52.424;10.840;2022-07-10T22:36:17;13.70;99.90
64869;DHT22;51349;52.424;10.840;2022-07-10T22:41:18;13.60;99.90
64869;DHT22;51349;52.424;10.840;2022-07-10T22:46:19;13.60;99.90
64869;DHT22;51349;52.424;10.840;2022-07-10T22:51:20;13.50;99.90
64869;DHT22;51349;52.424;10.840;2022-07-10T22:56:21;13.40;99.90
64869;DHT22;51349;52.424;10.840;2022-07-10T23:01:22;13.30;99.90
64869;DHT22;51349;52.424;10.840;2022-07-10T23:06:22;13.20;99.90
64869;DHT22;51349;52.424;10.840;2022-07-10T23:11:23;13.10;99.90
64869;DHT22;51349;52.424;10.840;2022-07-10T23:16:23;13.00;99.90
64869;DHT22;51349;52.424;10.840;2022-07-10T23:21:24;13.00;99.90
64869;DHT22;51349;52.424;10.840;2022-07-10T23:26:25;13.00;99.90
64869;DHT22;51349;52.424;10.840;2022-07-10T23:31:25;13.00;99.90
64869;DHT22;51349;52.424;10.840;2022-07-10T23:36:26;12.80;99.90
64869;DHT22;51349;52.424;10.840;2022-07-10T23:41:27;12.80;99.90
64869;DHT22;51349;52.424;10.840;2022-07-10T23:46:27;12.70;99.90
64869;DHT22;51349;52.424;10.840;2022-07-10T23:51:28;12.70;99.90
64869;DHT22;51349;52.424;10.840;2022-07-10T23:56:28;12.60;99.90
